Terminal Aerodrome Forecast
Issued by NWS Wilmington, NC

Home | Current Version | Previous Version | Text Only | Print | Product List | Glossary On
Versions: 1 2 3 4 5 6 7 8 9 10 11 12 13 14
000
FTUS42 KILM 231100 CCA
TAFFLO
TAF COR
KFLO 231151Z 2312/2412 03005KT P6SM SCT020 SCT150
     FM231800 07006KT P6SM VCSH SCT040 BKN100
      TEMPO 2319/2323 4SM SHRA BKN040
     FM240500 06004KT 5SM BR SCT010 BKN040
     FM241000 05006KT 2SM BR OVC006=

USA.gov is the U.S. government's official web portal to all federal, state and local government web resources and services.